Airfield :
LOGIN :

Register | Disclaimer

   EN    FR    IT 

 










Legend :    VFR   Marginal VFR   IFR   Intensive IFR   Very Intensive IFR
Visi :
Ceiling :
>= 8 km
>= 3000ft
5 to 8 km
1000 to 3000 ft
1500m to 5 km
500 to 1000 ft
800 to 1500m
200 to 500 ft
< 800m
< 200 ft
Symbols :   Thunderstorms  Fog  Heavy snow  Heavy precipitations  Wind > 20 kt
SIGMETs :     Misc.  Thunderstorms  Icing  Turbulence  Mountain Waves  Volcanic Ashes






- Airport Elevation : 648 ft
- IATA code : INI


LYNI - Nis Constantine

CURRENT METAR :
  • 210430Z VRB02KT 0400 R29/0600N R11/0500N FG NSC 02/01 Q1028 NOSIG

EXPIRED METARs :
  • 210400Z VRB02KT 2000 BR NSC 02/02 Q1028 TEMPO 0800 FG
  • 210330Z VRB02KT 8000 NSC 03/02 Q1028 NOSIG
  • 210300Z 17003KT 6000 NSC 01/M00 Q1028 NOSIG
  • 210230Z VRB02KT 8000 NSC 02/01 Q1028 NOSIG
  • 210200Z 09003KT 8000 NSC 03/02 Q1028 NOSIG

TAF TAF LYNI
Valid from the 21 at 00:00 until the 22 at 00:00 UTC


202300Z 2100/2124 09005KT CAVOK TX20/2114Z TN01/2104Z
PROB40
TEMPO 2104/2107 3000 BR



MET'MAP, your aeronautical weather chart ! - Copyright ORBIFLY December 2007 - Disclaimer

ORBIFLY MET'MAP TEAM :

Programming & Development : Alexandra Zaïnal
Concept & original design : Baudouin d'Aumeries
Assistance for programming : Marc-Olivier Méhu
Technical & hardware support : Manuel Goepfert

Contact : metmap@orbifly.com




SOURCES & CREDITS :

   NOAA